Time;durP1;ratioP1;P1;durP2;ratioP2;P2;SDS_P1;SDS_P2;PMS_P1;PMS_P2;Temp;Humidity;BMP_temperature;BMP_pressure;BME280_temperature;BME280_humidity;BME280_pressure;Samples;Min_cycle;Max_cycle;Signal;HPM_P1;HPM_P2
2023/06/10 00:01:40;;;;;;;12.77;4.00;;;;;;;;;;5001341;28;20188;-75
2023/06/10 00:04:25;;;;;;;4.30;3.38;;;;;;;;;;5004193;28;20768;-76
2023/06/10 00:07:10;;;;;;;9.85;4.05;;;;;;;;;;4996146;28;20193;-76
2023/06/10 00:09:55;;;;;;;8.23;3.95;;;;;;;;;;4990215;28;20204;-75
2023/06/10 00:12:40;;;;;;;5.93;3.75;;;;;;;;;;4985794;28;20223;-75
2023/06/10 00:15:24;;;;;;;5.15;3.65;;;;;;;;;;4990362;28;20594;-76
2023/06/10 00:18:09;;;;;;;5.93;3.75;;;;;;;;;;4998957;28;20201;-76
2023/06/10 00:20:54;;;;;;;10.73;4.18;;;;;;;;;;5002568;28;20262;-75
2023/06/10 00:23:41;;;;;;;7.82;4.15;;;;;;;;;;4989257;28;20188;-76
2023/06/10 00:26:25;;;;;;;8.25;3.97;;;;;;;;;;4994180;28;20561;-76
2023/06/10 00:29:10;;;;;;;7.28;3.78;;;;;;;;;;4988495;28;20279;-77
2023/06/10 00:31:57;;;;;;;7.35;4.18;;;;;;;;;;4990019;28;20184;-76
2023/06/10 00:34:42;;;;;;;7.43;3.97;;;;;;;;;;4990907;28;20727;-76
2023/06/10 00:37:28;;;;;;;5.13;3.28;;;;;;;;;;4986134;28;20406;-75
2023/06/10 00:40:13;;;;;;;6.00;3.80;;;;;;;;;;4986045;28;20618;-76
2023/06/10 00:42:58;;;;;;;7.25;3.92;;;;;;;;;;4994748;28;20746;-76
2023/06/10 00:45:43;;;;;;;6.60;3.70;;;;;;;;;;4990363;28;20212;-75
2023/06/10 00:48:28;;;;;;;4.60;3.70;;;;;;;;;;4990245;28;20233;-76
2023/06/10 00:51:13;;;;;;;7.28;3.58;;;;;;;;;;4985712;28;20315;-76
2023/06/10 00:53:57;;;;;;;7.63;3.22;;;;;;;;;;4992776;28;20173;-76
2023/06/10 00:56:43;;;;;;;6.93;3.55;;;;;;;;;;5004352;28;20228;-75
2023/06/10 00:59:28;;;;;;;7.07;3.63;;;;;;;;;;5001346;28;20595;-76
2023/06/10 01:02:13;;;;;;;7.40;3.80;;;;;;;;;;4990110;28;20547;-76
2023/06/10 01:04:59;;;;;;;7.20;4.03;;;;;;;;;;4991308;28;20264;-75
2023/06/10 01:07:49;;;;;;;6.88;3.70;;;;;;;;;;4991359;28;20196;-75
2023/06/10 01:10:37;;;;;;;7.90;3.07;;;;;;;;;;4992409;28;20244;-76
2023/06/10 01:13:28;;;;;;;8.00;3.20;;;17.50;99.90;;;;;;4991895;28;20181;-75
2023/06/10 01:16:12;;;;;;;9.30;3.90;;;17.60;99.90;;;;;;4991935;28;20184;-76
2023/06/10 01:18:57;;;;;;;8.02;4.20;;;17.50;99.90;;;;;;4993042;28;20389;-76
2023/06/10 01:21:48;;;;;;;6.80;3.63;;;17.30;99.90;;;;;;5003878;28;20277;-75
2023/06/10 01:24:34;;;;;;;5.65;3.55;;;17.40;99.90;;;;;;4992921;28;20569;-75
2023/06/10 01:27:21;;;;;;;7.03;3.65;;;17.40;99.90;;;;;;5003873;28;20226;-76
2023/06/10 01:30:17;;;;;;;4.28;3.63;;;17.30;99.90;;;;;;4995087;28;20236;-76
2023/06/10 01:33:05;;;;;;;4.43;3.37;;;16.60;99.90;;;;;;4989646;28;20185;-75
2023/06/10 01:35:51;;;;;;;7.50;3.50;;;;;;;;;;4991801;28;20220;-75
2023/06/10 01:38:46;;;;;;;6.23;3.27;;;17.10;99.90;;;;;;5007954;28;20181;-76
2023/06/10 01:41:30;;;;;;;;;;;17.10;99.90;;;;;;4995127;28;20033;-75
2023/06/10 01:44:21;;;;;;;4.72;3.55;;;17.20;99.90;;;;;;4987576;28;20241;-75
2023/06/10 01:47:06;;;;;;;8.37;3.50;;;17.00;99.90;;;;;;4989365;28;20201;-75
2023/06/10 01:49:52;;;;;;;9.77;3.70;;;16.60;99.90;;;;;;4994577;28;20205;-76
2023/06/10 01:52:39;;;;;;;6.63;3.40;;;16.90;99.90;;;;;;5005971;28;20656;-76
2023/06/10 01:55:24;;;;;;;5.63;3.30;;;;;;;;;;5006119;28;20224;-75
2023/06/10 01:58:08;;;;;;;6.97;3.40;;;;;;;;;;4996538;28;20258;-75
2023/06/10 02:00:53;;;;;;;9.90;3.20;;;;;;;;;;5000009;28;20237;-75
2023/06/10 02:03:38;;;;;;;6.90;3.40;;;;;;;;;;4998002;28;20216;-77
2023/06/10 02:06:22;;;;;;;4.43;3.27;;;;;;;;;;5003207;28;20233;-75
2023/06/10 02:09:07;;;;;;;5.97;3.37;;;;;;;;;;4994958;28;20207;-76
2023/06/10 02:11:51;;;;;;;6.80;3.93;;;;;;;;;;5001593;28;20186;-74
2023/06/10 02:14:36;;;;;;;6.03;3.40;;;;;;;;;;5005056;28;20207;-75
2023/06/10 02:17:20;;;;;;;9.25;4.07;;;;;;;;;;4993841;28;20386;-76
2023/06/10 02:20:07;;;;;;;7.00;3.40;;;;;;;;;;4990547;28;20189;-74
2023/06/10 02:22:52;;;;;;;8.03;3.23;;;;;;;;;;5005489;28;20185;-76
2023/06/10 02:25:36;;;;;;;9.13;3.63;;;;;;;;;;4992252;28;20263;-75
2023/06/10 02:28:21;;;;;;;9.43;3.43;;;;;;;;;;5003028;28;20206;-76
2023/06/10 02:31:06;;;;;;;7.03;3.40;;;;;;;;;;5004568;28;20244;-74
2023/06/10 02:33:51;;;;;;;8.25;4.13;;;;;;;;;;4990513;28;20413;-75
2023/06/10 02:36:36;;;;;;;7.67;3.70;;;;;;;;;;5004350;28;20333;-75
2023/06/10 02:39:21;;;;;;;7.30;3.70;;;;;;;;;;4989155;28;20231;-76
2023/06/10 02:42:06;;;;;;;7.10;3.50;;;;;;;;;;4995220;28;20324;-75
2023/06/10 02:44:51;;;;;;;6.13;3.30;;;;;;;;;;4992208;28;20295;-76
2023/06/10 02:47:35;;;;;;;5.17;3.33;;;;;;;;;;4991748;28;20277;-74
2023/06/10 02:50:20;;;;;;;8.77;4.20;;;;;;;;;;5002769;28;20465;-74
2023/06/10 02:53:05;;;;;;;7.77;3.87;;;;;;;;;;4992308;28;20233;-75
2023/06/10 02:55:49;;;;;;;7.87;3.50;;;;;;;;;;4992416;28;20220;-76
2023/06/10 02:58:34;;;;;;;7.57;3.50;;;;;;;;;;5002270;28;20376;-76
2023/06/10 03:01:18;;;;;;;9.27;3.03;;;;;;;;;;5000882;28;20236;-75
2023/06/10 03:04:06;;;;;;;11.25;4.43;;;;;;;;;;4994437;28;20413;-75
2023/06/10 03:06:51;;;;;;;7.17;4.20;;;;;;;;;;5004608;28;20402;-75
2023/06/10 03:09:36;;;;;;;8.27;3.77;;;;;;;;;;4991134;28;20216;-75
2023/06/10 03:12:20;;;;;;;12.90;4.10;;;;;;;;;;4992431;28;20205;-76
2023/06/10 03:15:05;;;;;;;7.40;3.20;;;;;;;;;;4989675;28;20216;-75
2023/06/10 03:17:50;;;;;;;6.30;3.60;;;;;;;;;;4991592;28;20184;-76
2023/06/10 03:20:39;;;;;;;12.30;3.60;;;;;;;;;;4986592;28;20184;-75
2023/06/10 03:23:24;;;;;;;7.07;3.60;;;;;;;;;;4983132;28;20225;-76
2023/06/10 03:26:09;;;;;;;8.10;3.70;;;;;;;;;;4992153;28;20221;-75
2023/06/10 03:28:54;;;;;;;10.93;3.90;;;;;;;;;;4986183;28;20184;-75
2023/06/10 03:31:39;;;;;;;8.47;3.63;;;;;;;;;;4989086;28;20200;-74
2023/06/10 03:34:24;;;;;;;9.33;3.63;;;;;;;;;;4987908;28;20260;-74
2023/06/10 03:37:08;;;;;;;8.35;4.68;;;;;;;;;;4986704;28;20403;-76
2023/06/10 03:39:53;;;;;;;11.60;4.00;;;;;;;;;;5003396;28;20196;-76
2023/06/10 03:42:38;;;;;;;8.93;4.37;;;;;;;;;;4991748;28;20692;-75
2023/06/10 03:45:24;;;;;;;7.97;3.70;;;;;;;;;;4990986;28;20217;-75
2023/06/10 03:48:09;;;;;;;6.80;3.80;;;;;;;;;;5002176;28;20216;-76
2023/06/10 03:50:53;;;;;;;9.57;3.80;;;;;;;;;;4999904;28;20296;-75
2023/06/10 03:53:38;;;;;;;5.93;3.47;;;;;;;;;;4990581;28;20256;-75
2023/06/10 03:56:22;;;;;;;7.83;4.10;;;;;;;;;;4991485;28;20180;-74
2023/06/10 03:59:07;;;;;;;6.43;3.80;;;;;;;;;;4999448;28;20192;-75
2023/06/10 04:01:52;;;;;;;7.47;3.50;;;;;;;;;;4991132;28;20201;-76
2023/06/10 04:04:37;;;;;;;9.33;4.10;;;;;;;;;;4984095;28;20255;-76
2023/06/10 04:07:22;;;;;;;8.70;3.67;;;;;;;;;;4987579;28;20193;-74
2023/06/10 04:10:07;;;;;;;8.00;3.90;;;;;;;;;;4991227;28;20224;-75
2023/06/10 04:12:52;;;;;;;11.43;4.63;;;;;;;;;;4992143;28;20243;-75
2023/06/10 04:15:37;;;;;;;9.60;3.63;;;;;;;;;;4989423;28;20251;-75
2023/06/10 04:18:22;;;;;;;7.00;3.50;;;;;;;;;;4990789;28;20184;-75
2023/06/10 04:21:06;;;;;;;6.40;3.57;;;;;;;;;;4998953;28;20176;-75
2023/06/10 04:23:51;;;;;;;12.80;3.97;;;;;;;;;;5004096;28;20185;-76
2023/06/10 04:26:36;;;;;;;7.30;4.43;;;;;;;;;;5002720;28;20299;-74
2023/06/10 04:29:21;;;;;;;7.37;4.00;;;;;;;;;;4990959;28;20220;-76
2023/06/10 04:32:06;;;;;;;8.40;3.43;;;;;;;;;;4986028;28;20232;-75
2023/06/10 04:34:51;;;;;;;7.83;3.67;;;;;;;;;;4992156;28;20259;-74
2023/06/10 04:37:35;;;;;;;7.87;3.60;;;;;;;;;;4991769;28;20189;-76
2023/06/10 04:40:20;;;;;;;8.67;3.57;;;;;;;;;;4987378;28;20563;-75
2023/06/10 04:43:04;;;;;;;7.03;3.90;;;;;;;;;;5007483;28;20188;-75
2023/06/10 04:45:49;;;;;;;9.23;4.13;;;;;;;;;;4995136;28;20224;-74
2023/06/10 04:48:35;;;;;;;8.10;3.73;;;;;;;;;;4996051;28;20196;-75
2023/06/10 04:51:20;;;;;;;11.10;3.73;;;;;;;;;;5007400;28;20602;-75
2023/06/10 04:54:05;;;;;;;9.50;3.60;;;;;;;;;;5007797;28;20289;-76
2023/06/10 04:56:49;;;;;;;7.43;3.80;;;;;;;;;;4995565;28;20285;-74
2023/06/10 04:59:37;;;;;;;7.47;4.37;;;15.30;99.90;;;;;;4991533;28;20196;-76
2023/06/10 05:02:24;;;;;;;5.63;3.77;;;;;;;;;;4995259;28;20270;-75
2023/06/10 05:05:08;;;;;;;7.93;3.57;;;15.10;99.90;;;;;;4991522;28;20213;-76
2023/06/10 05:07:52;;;;;;;12.23;3.80;;;15.20;99.90;;;;;;5008032;28;20196;-76
2023/06/10 05:10:37;;;;;;;10.97;4.20;;;15.20;99.90;;;;;;4994967;28;20258;-76
2023/06/10 05:13:22;;;;;;;10.00;4.20;;;;;;;;;;4990215;28;20184;-74
2023/06/10 05:16:07;;;;;;;10.97;4.60;;;15.10;99.90;;;;;;4993983;28;20292;-75
2023/06/10 05:18:52;;;;;;;6.77;3.70;;;15.30;99.90;;;;;;5006884;28;20243;-76
2023/06/10 05:21:36;;;;;;;9.03;4.00;;;;;;;;;;4993707;28;20196;-75
2023/06/10 05:24:21;;;;;;;11.67;4.13;;;;;;;;;;4990208;28;20265;-75
2023/06/10 05:27:06;;;;;;;8.30;4.17;;;;;;;;;;4993642;28;20181;-76
2023/06/10 05:29:51;;;;;;;9.63;3.90;;;;;;;;;;4994640;28;20273;-75
2023/06/10 05:32:36;;;;;;;7.57;4.03;;;;;;;;;;4995892;28;20229;-76
2023/06/10 05:35:21;;;;;;;9.23;3.93;;;;;;;;;;4994174;28;20216;-76
2023/06/10 05:38:06;;;;;;;5.47;3.87;;;;;;;;;;5008101;28;20393;-75
2023/06/10 05:40:51;;;;;;;8.70;4.13;;;;;;;;;;4995169;28;20204;-75
2023/06/10 05:43:36;;;;;;;8.00;4.57;;;;;;;;;;4992229;28;20184;-77
2023/06/10 05:46:21;;;;;;;7.40;4.30;;;;;;;;;;4993242;28;20221;-75
2023/06/10 05:49:07;;;;;;;6.53;3.70;;;;;;;;;;4988617;28;20277;-75
2023/06/10 05:51:52;;;;;;;7.20;4.13;;;;;;;;;;5006586;28;20200;-75
2023/06/10 05:54:37;;;;;;;9.80;4.13;;;;;;;;;;4992653;28;20220;-75
2023/06/10 05:57:23;;;;;;;8.30;4.40;;;;;;;;;;4989610;28;20180;-76
2023/06/10 06:00:09;;;;;;;8.57;4.20;;;;;;;;;;4992197;28;20271;-75
2023/06/10 06:02:57;;;;;;;9.93;4.73;;;;;;;;;;4985781;28;20184;-76
2023/06/10 06:05:42;;;;;;;6.33;4.07;;;;;;;;;;4991958;28;20215;-75
2023/06/10 06:08:27;;;;;;;6.93;4.30;;;;;;;;;;4993024;28;20205;-76
2023/06/10 06:11:13;;;;;;;10.70;4.70;;;;;;;;;;5005965;28;20204;-75
2023/06/10 06:13:59;;;;;;;10.43;4.80;;;;;;;;;;4992895;28;20259;-75
2023/06/10 06:16:45;;;;;;;6.73;3.97;;;;;;;;;;4993698;28;20197;-76
2023/06/10 06:19:30;;;;;;;7.63;4.13;;;;;;;;;;4991462;28;20184;-76
2023/06/10 06:22:15;;;;;;;11.03;4.73;;;;;;;;;;4988999;28;20621;-75
2023/06/10 06:24:59;;;;;;;7.67;4.57;;;;;;;;;;4990455;28;20263;-75
2023/06/10 06:27:44;;;;;;;7.67;4.70;;;;;;;;;;4990565;28;20285;-76
2023/06/10 06:30:28;;;;;;;6.93;4.17;;;;;;;;;;4991128;28;20264;-76
2023/06/10 06:33:13;;;;;;;7.10;4.30;;;;;;;;;;4988312;28;20192;-75
2023/06/10 06:36:00;;;;;;;10.23;4.67;;;;;;;;;;4997076;28;20307;-75
2023/06/10 06:38:45;;;;;;;6.97;4.20;;;;;;;;;;4992186;28;20200;-75
2023/06/10 06:41:29;;;;;;;9.33;4.50;;;;;;;;;;4990563;28;20243;-75
2023/06/10 06:44:14;;;;;;;6.83;4.20;;;;;;;;;;4998155;28;20240;-75
2023/06/10 06:46:58;;;;;;;7.03;4.63;;;;;;;;;;5002976;28;20220;-75
2023/06/10 06:49:42;;;;;;;6.43;4.60;;;16.50;99.90;;;;;;4991184;28;20275;-76
2023/06/10 06:52:27;;;;;;;12.50;5.37;;;;;;;;;;5003734;28;20185;-75
2023/06/10 06:55:11;;;;;;;11.93;5.13;;;;;;;;;;4996055;28;20212;-75
2023/06/10 06:57:56;;;;;;;9.17;5.57;;;;;;;;;;4990809;28;20181;-74
2023/06/10 07:00:41;;;;;;;9.47;4.87;;;;;;;;;;5004507;28;20196;-75
2023/06/10 07:03:26;;;;;;;8.77;5.03;;;;;;;;;;4988708;28;20308;-75
2023/06/10 07:06:10;;;;;;;12.03;5.50;;;;;;;;;;4986579;28;20184;-75
2023/06/10 07:08:55;;;;;;;6.90;4.77;;;;;;;;;;4989684;28;20344;-75
2023/06/10 07:11:39;;;;;;;8.50;5.67;;;;;;;;;;4989285;28;20297;-75
2023/06/10 07:14:24;;;;;;;9.13;5.60;;;;;;;;;;4990481;28;20228;-75
2023/06/10 07:17:08;;;;;;;10.37;5.50;;;;;;;;;;4984958;28;20238;-75
2023/06/10 07:19:57;;;;;;;9.87;5.70;;;;;;;;;;4990263;28;20267;-74
2023/06/10 07:22:41;;;;;;;7.80;5.10;;;;;;;;;;4987707;28;20250;-75
2023/06/10 07:25:26;;;;;;;9.43;4.87;;;;;;;;;;4989555;28;20297;-75
2023/06/10 07:28:10;;;;;;;9.47;6.10;;;;;;;;;;4983838;28;20228;-76
2023/06/10 07:30:55;;;;;;;8.67;5.60;;;;;;;;;;5002417;28;20736;-75
2023/06/10 07:33:39;;;;;;;8.47;5.20;;;;;;;;;;4988753;28;20192;-74
2023/06/10 07:36:27;;;;;;;11.33;6.03;;;;;;;;;;4984469;28;20201;-75
2023/06/10 07:39:11;;;;;;;10.17;5.23;;;;;;;;;;5001982;28;20223;-74
2023/06/10 07:41:56;;;;;;;7.07;5.33;;;;;;;;;;5000064;28;20272;-74
2023/06/10 07:44:41;;;;;;;7.30;5.63;;;;;;;;;;4987163;28;20216;-75
2023/06/10 07:47:26;;;;;;;10.33;5.83;;;;;;;;;;4986323;28;20281;-73
2023/06/10 07:50:11;;;;;;;11.10;5.60;;;;;;;;;;4983644;28;20285;-75
2023/06/10 07:52:55;;;;;;;12.53;5.73;;;;;;;;;;4989782;28;20177;-74
2023/06/10 07:55:40;;;;;;;10.57;5.67;;;;;;;;;;4993970;28;20233;-75
2023/06/10 07:58:24;;;;;;;7.53;5.60;;;;;;;;;;4989809;28;20192;-75
2023/06/10 08:01:09;;;;;;;9.33;5.63;;;;;;;;;;4984794;28;20694;-75
2023/06/10 08:03:53;;;;;;;10.93;6.17;;;;;;;;;;4986730;28;20216;-75
2023/06/10 08:06:38;;;;;;;9.07;5.53;;;;;;;;;;4987582;28;20268;-76
2023/06/10 08:09:23;;;;;;;8.57;5.63;;;;;;;;;;4986778;28;20212;-75
2023/06/10 08:12:07;;;;;;;9.30;5.73;;;;;;;;;;4989686;28;20200;-75
2023/06/10 08:14:52;;;;;;;10.50;6.50;;;;;;;;;;4989914;28;20237;-74
2023/06/10 08:17:38;;;;;;;10.63;5.83;;;;;;;;;;4981756;28;20233;-75
2023/06/10 08:20:23;;;;;;;7.03;4.90;;;;;;;;;;4992685;28;20193;-74
2023/06/10 08:23:07;;;;;;;10.23;5.40;;;;;;;;;;4993479;28;20189;-76
2023/06/10 08:25:52;;;;;;;8.55;5.00;;;;;;;;;;4992622;28;20221;-76
2023/06/10 08:28:36;;;;;;;7.83;5.20;;;;;;;;;;4994255;28;20541;-78
2023/06/10 08:31:21;;;;;;;7.17;4.90;;;;;;;;;;4992605;28;20232;-77
2023/06/10 08:34:05;;;;;;;11.43;5.47;;;;;;;;;;4989681;28;20258;-77
2023/06/10 08:36:53;;;;;;;7.50;4.93;;;;;;;;;;4994150;28;20244;-79
2023/06/10 08:39:37;;;;;;;9.95;5.00;;;;;;;;;;4992152;28;20236;-77
2023/06/10 08:42:23;;;;;;;7.95;4.80;;;;;;;;;;4990367;28;20208;-77
2023/06/10 08:45:10;;;;;;;6.73;4.43;;;;;;;;;;4990352;28;20277;-77
2023/06/10 08:47:57;;;;;;;8.05;4.68;;;;;;;;;;5000076;28;20188;-77
2023/06/10 08:50:42;;;;;;;6.65;4.22;;;;;;;;;;4983714;28;20208;-77
2023/06/10 08:53:27;;;;;;;10.30;4.50;;;;;;;;;;5003705;28;20240;-78
2023/06/10 08:56:12;;;;;;;6.20;4.75;;;;;;;;;;5007391;28;20277;-77
2023/06/10 08:58:58;;;;;;;6.35;3.90;;;;;;;;;;4991981;28;20193;-77
2023/06/10 09:01:43;;;;;;;8.50;4.25;;;;;;;;;;4997877;28;20566;-77
2023/06/10 09:04:28;;;;;;;6.93;3.90;;;;;;;;;;4989940;28;20281;-77
2023/06/10 09:07:14;;;;;;;6.93;4.25;;;;;;;;;;4991924;28;20248;-77
2023/06/10 09:09:59;;;;;;;12.80;3.92;;;;;;;;;;4993551;28;20236;-77
2023/06/10 09:12:44;;;;;;;8.80;4.75;;;;;;;;;;4984377;28;20235;-78
2023/06/10 09:15:29;;;;;;;9.68;4.47;;;;;;;;;;4992867;28;20212;-77
2023/06/10 09:18:14;;;;;;;5.97;3.65;;;;;;;;;;4992875;28;20248;-78
2023/06/10 09:20:58;;;;;;;5.53;4.13;;;;;;;;;;4993627;28;20274;-77
2023/06/10 09:23:43;;;;;;;5.50;3.75;;;;;;;;;;4990598;28;20216;-78
2023/06/10 09:26:29;;;;;;;6.80;3.95;;;;;;;;;;4992119;28;20704;-77
2023/06/10 09:29:14;;;;;;;10.70;4.40;;;;;;;;;;4992369;28;20217;-77
2023/06/10 09:31:59;;;;;;;5.00;3.63;;;;;;;;;;4992292;28;20556;-78
2023/06/10 09:34:44;;;;;;;9.45;3.88;;;;;;;;;;4996754;28;20236;-78
2023/06/10 09:37:28;;;;;;;9.05;4.85;;;;;;;;;;4984635;28;20213;-78
2023/06/10 09:40:13;;;;;;;7.45;4.03;;;;;;;;;;5001825;28;20200;-79
2023/06/10 09:42:59;;;;;;;8.70;4.30;;;;;;;;;;4990979;28;20188;-79
2023/06/10 09:45:43;;;;;;;6.53;3.90;;;;;;;;;;4989606;28;20220;-78
2023/06/10 09:48:28;;;;;;;7.25;3.75;;;;;;;;;;4990841;28;20188;-78
2023/06/10 09:51:14;;;;;;;6.88;3.72;;;;;;;;;;4987191;28;20310;-81
2023/06/10 09:53:59;;;;;;;3.63;3.13;;;;;;;;;;5000208;28;20232;-79
2023/06/10 09:56:47;;;;;;;10.13;3.78;;;;;;;;;;4988317;28;20192;-78
2023/06/10 09:59:32;;;;;;;4.35;3.42;;;;;;;;;;4992741;28;20189;-78
2023/06/10 10:02:17;;;;;;;4.70;3.33;;;;;;;;;;4986546;28;20216;-78
2023/06/10 10:05:06;;;;;;;4.85;3.35;;;;;;;;;;5000235;28;20260;-77
2023/06/10 10:07:52;;;;;;;6.85;3.25;;;;;;;;;;4988516;28;20201;-78
2023/06/10 10:10:36;;;;;;;7.93;3.60;;;;;;;;;;4995374;28;20231;-77
2023/06/10 10:13:21;;;;;;;7.88;3.38;;;;;;;;;;4992251;28;20212;-78
2023/06/10 10:16:11;;;;;;;5.32;3.30;;;;;;;;;;5005276;28;20216;-77
2023/06/10 10:18:56;;;;;;;6.30;3.25;;;;;;;;;;4994818;28;20204;-78
2023/06/10 10:21:48;;;;;;;5.85;3.70;;;;;;;;;;5001975;28;20180;-79
2023/06/10 10:24:53;;;;;;;5.55;3.50;;;;;;;;;;4987456;28;20217;-77
2023/06/10 10:27:44;;;;;;;5.82;3.03;;;;;;;;;;4991036;28;20569;-77
2023/06/10 10:30:30;;;;;;;4.72;3.53;;;;;;;;;;4994526;28;20361;-77
2023/06/10 10:33:22;;;;;;;5.68;3.63;;;;;;;;;;4997768;28;20213;-78
2023/06/10 10:36:07;;;;;;;8.75;3.50;;;;;;;;;;4988016;28;20225;-77
2023/06/10 10:38:52;;;;;;;5.13;3.65;;;;;;;;;;4992290;28;20239;-78
2023/06/10 10:41:37;;;;;;;6.72;3.35;;;;;;;;;;4989076;28;20316;-77
2023/06/10 10:44:22;;;;;;;5.57;3.17;;;;;;;;;;5003777;28;20212;-79
2023/06/10 10:47:10;;;;;;;4.75;3.28;;;;;;;;;;4991166;28;20696;-78
2023/06/10 10:49:58;;;;;;;5.85;3.50;;;;;;;;;;5000934;28;20260;-78
2023/06/10 10:52:52;;;;;;;4.13;3.20;;;;;;;;;;4995685;28;20205;-79
2023/06/10 10:55:36;;;;;;;6.07;3.50;;;;;;;;;;4995443;28;20212;-79
2023/06/10 10:58:25;;;;;;;7.50;3.00;;;;;;;;;;5007487;28;20177;-78
2023/06/10 11:01:14;;;;;;;7.97;3.40;;;;;;;;;;4990716;28;20192;-79
2023/06/10 11:03:59;;;;;;;3.55;2.92;;;;;;;;;;4998140;28;20742;-77
2023/06/10 11:06:53;;;;;;;4.50;2.97;;;;;;;;;;5008753;28;20239;-77
2023/06/10 11:09:37;;;;;;;3.97;2.92;;;;;;;;;;4994232;28;20249;-77
2023/06/10 11:12:25;;;;;;;4.50;2.55;;;;;;;;;;4992902;28;20240;-79
2023/06/10 11:15:10;;;;;;;5.63;2.78;;;;;;;;;;4985254;28;20209;-77
2023/06/10 11:18:13;;;;;;;5.35;3.25;;;;;;;;;;4990384;28;20204;-78
2023/06/10 11:21:04;;;;;;;3.47;2.40;;;;;;;;;;4990104;28;20763;-77
2023/06/10 11:23:50;;;;;;;4.13;2.30;;;;;;;;;;4990138;28;20620;-77
2023/06/10 11:26:34;;;;;;;4.70;2.83;;;;;;;;;;4987045;28;20260;-78
2023/06/10 11:29:20;;;;;;;6.88;2.42;;;;;;;;;;4989150;28;20185;-77
2023/06/10 11:32:05;;;;;;;4.75;2.47;;;;;;;;;;4986403;28;20226;-78
2023/06/10 11:34:53;;;;;;;8.38;2.67;;;;;;;;;;4996217;28;20288;-78
2023/06/10 11:37:38;;;;;;;4.25;2.50;;;;;;;;;;4987171;28;20181;-77
2023/06/10 11:40:22;;;;;;;5.93;2.63;;;;;;;;;;4998711;28;20216;-78
2023/06/10 11:43:07;;;;;;;2.33;2.10;;;;;;;;;;5003053;28;20235;-78
2023/06/10 11:45:55;;;;;;;2.85;2.53;;;;;;;;;;4991116;28;20271;-77
2023/06/10 11:48:40;;;;;;;4.75;2.40;;;;;;;;;;4990125;28;20201;-79
2023/06/10 11:51:33;;;;;;;7.10;2.80;;;;;;;;;;4992116;28;20646;-79
2023/06/10 11:54:18;;;;;;;5.55;2.63;;;;;;;;;;5001497;28;20212;-79
2023/06/10 11:57:03;;;;;;;2.53;2.33;;;;;;;;;;5005386;28;20256;-78
2023/06/10 11:59:48;;;;;;;6.03;2.67;;;;;;;;;;4991539;28;20189;-77
2023/06/10 12:02:33;;;;;;;2.58;2.20;;;;;;;;;;4989847;28;20265;-78
2023/06/10 12:05:19;;;;;;;2.53;2.15;;;;;;;;;;4992121;28;20212;-78
2023/06/10 12:08:10;;;;;;;3.85;2.38;;;;;;;;;;4993486;28;20281;-79
2023/06/10 12:10:56;;;;;;;2.97;2.45;;;;;;;;;;4991611;28;20602;-78
2023/06/10 12:13:48;;;;;;;4.45;2.58;;;;;;;;;;4992671;28;20196;-79
2023/06/10 12:16:33;;;;;;;5.05;2.50;;;;;;;;;;4992539;28;20249;-80
2023/06/10 12:19:18;;;;;;;5.25;2.45;;;;;;;;;;4997289;28;20274;-78
2023/06/10 12:22:03;;;;;;;4.63;2.22;;;;;;;;;;4992129;28;20243;-78
2023/06/10 12:25:02;;;;;;;4.40;2.35;;;;;;;;;;4993042;28;20220;-77
2023/06/10 12:27:53;;;;;;;5.35;2.42;;;;;;;;;;4989569;28;20248;-77
2023/06/10 12:30:38;;;;;;;7.38;2.63;;;;;;;;;;4991782;28;20209;-78
2023/06/10 12:33:22;;;;;;;3.78;2.25;;;;;;;;;;5004735;28;20228;-79
2023/06/10 12:36:16;;;;;;;3.95;2.40;;;;;;;;;;5003021;28;20232;-77
2023/06/10 12:39:05;;;;;;;2.95;2.40;;;;;;;;;;4990523;28;20185;-77
2023/06/10 12:41:49;;;;;;;9.07;2.40;;;;;;;;;;4983845;28;20228;-78
2023/06/10 12:44:35;;;;;;;3.80;2.33;;;;;;;;;;4991024;28;20268;-78
2023/06/10 12:47:20;;;;;;;4.72;2.47;;;;;;;;;;4995994;28;20184;-78
2023/06/10 12:50:05;;;;;;;4.00;2.80;;;;;;;;;;4989733;28;20216;-76
2023/06/10 12:52:51;;;;;;;3.15;2.78;;;;;;;;;;4988372;28;20193;-78
2023/06/10 12:55:35;;;;;;;4.18;2.72;;;;;;;;;;4992540;28;20204;-77
2023/06/10 12:58:20;;;;;;;5.47;2.70;;;;;;;;;;4987265;28;20559;-79
2023/06/10 13:01:05;;;;;;;4.13;2.50;;;;;;;;;;4990811;28;20213;-77
2023/06/10 13:03:50;;;;;;;4.03;2.40;;;;;;;;;;4994395;28;20212;-78
2023/06/10 13:06:38;;;;;;;5.20;2.55;;;;;;;;;;4993336;28;20565;-78
2023/06/10 13:09:23;;;;;;;4.57;2.60;;;;;;;;;;5004480;28;20192;-77
2023/06/10 13:12:08;;;;;;;13.95;2.85;;;;;;;;;;4989764;28;20252;-77
2023/06/10 13:14:53;;;;;;;5.38;2.40;;;;;;;;;;4990757;28;20288;-78
2023/06/10 13:17:39;;;;;;;5.15;2.80;;;;;;;;;;4994753;28;20196;-79
2023/06/10 13:20:23;;;;;;;5.22;2.53;;;;;;;;;;4992648;28;20200;-76
2023/06/10 13:23:07;;;;;;;5.43;2.40;;;;;;;;;;4991860;28;20224;-76
2023/06/10 13:25:52;;;;;;;2.72;2.22;;;;;;;;;;4993399;28;20264;-75
2023/06/10 13:28:38;;;;;;;3.38;2.50;;;;;;;;;;4993589;28;20200;-75
2023/06/10 13:31:22;;;;;;;4.30;2.60;;;;;;;;;;5003881;28;20208;-76
2023/06/10 13:34:07;;;;;;;2.83;2.55;;;;;;;;;;4992390;28;20741;-77
2023/06/10 13:36:52;;;;;;;4.90;2.33;;;;;;;;;;4993952;28;20239;-77
2023/06/10 13:39:37;;;;;;;3.75;2.33;;;;;;;;;;4989449;28;20193;-78
2023/06/10 13:42:21;;;;;;;5.47;2.83;;;;;;;;;;4988116;28;20196;-77
2023/06/10 13:45:06;;;;;;;5.18;2.70;;;;;;;;;;4992668;28;20231;-77
2023/06/10 13:47:51;;;;;;;4.68;2.78;;;;;;;;;;4990732;28;20208;-77
2023/06/10 13:50:36;;;;;;;3.35;2.50;;;;;;;;;;4993104;28;20331;-77
2023/06/10 13:53:21;;;;;;;5.88;2.92;;;;;;;;;;4990200;28;20197;-77
2023/06/10 13:56:05;;;;;;;4.82;2.70;;;;;;;;;;4990875;28;20271;-77
2023/06/10 13:58:50;;;;;;;4.93;2.70;;;;;;;;;;4989440;28;20721;-77
2023/06/10 14:01:35;;;;;;;5.10;2.55;;;;;;;;;;4995443;28;20231;-76
2023/06/10 14:04:19;;;;;;;3.55;2.45;;;;;;;;;;4995287;28;20305;-77
2023/06/10 14:07:04;;;;;;;3.95;2.90;;;;;;;;;;5003842;28;20269;-77
2023/06/10 14:09:50;;;;;;;4.18;2.50;;;;;;;;;;4983672;28;20583;-76
2023/06/10 14:12:35;;;;;;;3.58;2.70;;;;;;;;;;4995077;28;20217;-76
2023/06/10 14:15:20;;;;;;;4.25;2.65;;;;;;;;;;4987759;28;20589;-76
2023/06/10 14:18:05;;;;;;;5.00;2.75;;;;;;;;;;4988549;28;20201;-77
2023/06/10 14:20:50;;;;;;;6.00;2.55;;;;;;;;;;4987987;28;20192;-76
2023/06/10 14:23:34;;;;;;;4.30;2.60;;;;;;;;;;4990135;23;20245;-72
2023/06/10 14:26:21;;;;;;;3.13;2.58;;;;;;;;;;4951207;28;20286;-72
2023/06/10 14:29:06;;;;;;;4.03;2.38;;;;;;;;;;4936256;28;20198;-72
2023/06/10 14:31:51;;;;;;;5.20;2.83;;;;;;;;;;4944036;28;20307;-73
2023/06/10 14:34:36;;;;;;;5.20;2.80;;;;;;;;;;4932413;29;20211;-73
2023/06/10 14:37:20;;;;;;;3.72;2.83;;;;;;;;;;4953435;28;20234;-72
2023/06/10 14:40:05;;;;;;;3.92;2.95;;;;;;;;;;4953279;28;20194;-73
2023/06/10 14:42:50;;;;;;;6.35;3.00;;;;;;;;;;4932941;28;20198;-72
2023/06/10 14:45:35;;;;;;;6.15;3.15;;;;;;;;;;4948120;28;20215;-73
2023/06/10 14:48:19;;;;;;;5.05;3.13;;;;;;;;;;4951221;28;20189;-72
2023/06/10 14:51:04;;;;;;;5.32;3.00;;;;;;;;;;4952504;28;20213;-72
2023/06/10 14:53:48;;;;;;;3.70;3.10;;;;;;;;;;4951884;28;20214;-72
2023/06/10 14:56:33;;;;;;;3.22;2.92;;;;;;;;;;4955204;28;20202;-72
2023/06/10 14:59:17;;;;;;;3.40;3.10;;;;;;;;;;4948109;28;20194;-72
2023/06/10 15:02:02;;;;;;;4.18;3.03;;;;;;;;;;4957462;28;20198;-72
2023/06/10 15:04:46;;;;;;;5.70;3.40;;;;;;;;;;4942749;28;20266;-70
2023/06/10 15:07:30;;;;;;;3.60;3.08;;;;;;;;;;4939340;29;20253;-72
2023/06/10 15:10:15;;;;;;;5.32;3.20;;;;;;;;;;4950782;28;20608;-74
2023/06/10 15:13:00;;;;;;;5.93;3.50;;;;;;;;;;4950969;28;20183;-72
2023/06/10 15:15:45;;;;;;;4.55;3.42;;;;;;;;;;4950240;28;20225;-72
2023/06/10 15:18:29;;;;;;;4.55;4.05;;;;;;;;;;4940849;28;20606;-71
2023/06/10 15:21:14;;;;;;;6.40;3.72;;;;;;;;;;4948897;28;20734;-72
2023/06/10 15:23:59;;;;;;;6.43;3.55;;;;;;;;;;4947831;28;20225;-72
2023/06/10 15:26:43;;;;;;;5.18;3.90;;;;;;;;;;4945345;28;20206;-72
2023/06/10 15:29:28;;;;;;;4.00;3.60;;;;;;;;;;4948105;28;20233;-73
2023/06/10 15:32:12;;;;;;;5.43;3.90;;;;;;;;;;4936292;28;20275;-73
2023/06/10 15:34:57;;;;;;;5.68;3.17;;;;;;;;;;4935553;28;20224;-73
2023/06/10 15:37:41;;;;;;;9.80;6.13;;;;;;;;;;4952972;28;20255;-72
2023/06/10 15:40:26;;;;;;;7.18;3.90;;;;;;;;;;4956115;28;20201;-72
2023/06/10 15:43:10;;;;;;;6.93;5.45;;;;;;;;;;4934471;28;20197;-72
2023/06/10 15:45:55;;;;;;;6.70;3.80;;;;;;;;;;4936452;28;20186;-72
2023/06/10 15:48:40;;;;;;;5.82;3.88;;;;;;;;;;4943553;28;20249;-71
2023/06/10 15:51:24;;;;;;;4.70;3.40;;;;;;;;;;4949111;28;20646;-73
2023/06/10 15:54:09;;;;;;;6.45;3.80;;;;;;;;;;4946410;28;20245;-73
2023/06/10 15:56:53;;;;;;;5.50;3.72;;;;;;;;;;4953443;28;20294;-73
2023/06/10 15:59:38;;;;;;;7.68;3.70;;;;;;;;;;4955888;28;20245;-74
2023/06/10 16:02:22;;;;;;;6.35;3.60;;;;;;;;;;4951607;28;20727;-73
2023/06/10 16:05:07;;;;;;;4.18;3.60;;;;;;;;;;4958761;28;20221;-73
2023/06/10 16:07:52;;;;;;;5.78;3.20;;;;;;;;;;4950434;28;20193;-74
2023/06/10 16:10:37;;;;;;;4.97;3.78;;;;;;;;;;4946095;28;20253;-74
2023/06/10 16:13:21;;;;;;;5.45;3.83;;;;;;;;;;4946653;28;20205;-73
2023/06/10 16:16:06;;;;;;;4.72;3.65;;;;;;;;;;4946631;28;20238;-74
2023/06/10 16:18:51;;;;;;;3.72;3.35;;;;;;;;;;4949751;28;20245;-74
2023/06/10 16:21:37;;;;;;;5.00;3.72;;;;;;;;;;4963174;28;20553;-74